Time;durP1;ratioP1;P1;durP2;ratioP2;P2;SDS_P1;SDS_P2;PMS_P1;PMS_P2;Temp;Humidity;BMP_temperature;BMP_pressure;BME280_temperature;BME280_humidity;BME280_pressure;Samples;Min_cycle;Max_cycle;Signal;HPM_P1;HPM_P2
2024/03/28 00:01:07;;;;;;;1.60;1.50;;;3.90;99.90;;;;;;5080454;28;20395;-80
2024/03/28 00:03:33;;;;;;;2.30;1.80;;;4.10;99.90;;;;;;5086277;28;20442;-79
2024/03/28 00:06:00;;;;;;;1.75;1.60;;;4.60;99.90;;;;;;5089275;28;20383;-79
2024/03/28 00:08:26;;;;;;;1.80;1.70;;;4.60;99.90;;;;;;5080909;28;20372;-80
2024/03/28 00:10:53;;;;;;;3.20;1.80;;;4.20;99.90;;;;;;5086073;28;20824;-78
2024/03/28 00:13:19;;;;;;;2.45;1.63;;;4.10;99.90;;;;;;5092463;28;20415;-78
2024/03/28 00:15:45;;;;;;;1.95;1.75;;;4.10;99.90;;;;;;5096229;28;20402;-78
2024/03/28 00:18:11;;;;;;;2.00;1.80;;;4.00;99.90;;;;;;5104094;28;20413;-78
2024/03/28 00:20:36;;;;;;;1.95;1.60;;;4.00;99.90;;;;;;5076104;28;20409;-79
2024/03/28 00:23:02;;;;;;;3.10;1.73;;;4.20;99.90;;;;;;5065688;28;20389;-79
2024/03/28 00:25:31;;;;;;;1.67;1.58;;;4.20;99.90;;;;;;5093564;28;20456;-81
2024/03/28 00:28:03;;;;;;;2.03;1.60;;;4.10;99.90;;;;;;5084454;28;20375;-80
2024/03/28 00:30:28;;;;;;;2.40;1.60;;;4.20;99.90;;;;;;5083542;28;20368;-79
2024/03/28 00:32:54;;;;;;;1.93;1.50;;;;;;;;;;5070767;28;20392;-80
2024/03/28 00:35:20;;;;;;;2.10;1.63;;;4.20;99.90;;;;;;5087296;28;20379;-80
2024/03/28 00:37:45;;;;;;;1.90;1.70;;;4.00;99.90;;;;;;5102836;28;20385;-81
2024/03/28 00:40:14;;;;;;;1.60;1.50;;;4.10;99.90;;;;;;5102550;28;20386;-80
2024/03/28 00:42:39;;;;;;;1.50;1.40;;;4.10;99.90;;;;;;5091375;28;20448;-80
2024/03/28 00:45:05;;;;;;;1.50;1.40;;;4.20;99.90;;;;;;5089932;28;20982;-80
2024/03/28 00:47:31;;;;;;;2.90;1.55;;;4.00;99.90;;;;;;5074041;28;20931;-79
2024/03/28 00:49:56;;;;;;;1.63;1.20;;;3.80;99.90;;;;;;5080712;28;20400;-80
2024/03/28 00:52:23;;;;;;;1.40;1.30;;;4.00;99.90;;;;;;5081568;28;20509;-80
2024/03/28 00:54:49;;;;;;;1.40;1.10;;;3.90;99.90;;;;;;5086684;28;20415;-80
2024/03/28 00:57:15;;;;;;;1.50;1.40;;;3.60;99.90;;;;;;5097334;28;20390;-78
2024/03/28 00:59:40;;;;;;;1.40;1.27;;;3.90;99.90;;;;;;5096903;28;20386;-80
2024/03/28 01:02:06;;;;;;;1.43;1.13;;;3.90;99.90;;;;;;5060671;28;20377;-78
2024/03/28 01:04:31;;;;;;;1.37;1.27;;;3.90;99.90;;;;;;5084155;28;20411;-78
2024/03/28 01:06:57;;;;;;;1.30;1.10;;;3.60;99.90;;;;;;5094796;28;20390;-79
2024/03/28 01:09:22;;;;;;;0.90;0.90;;;4.10;99.90;;;;;;5094496;28;20462;-80
2024/03/28 01:11:48;;;;;;;1.55;1.30;;;3.70;99.90;;;;;;5079065;28;20411;-80
2024/03/28 01:14:13;;;;;;;1.00;0.90;;;4.00;99.90;;;;;;5075229;28;20417;-80
2024/03/28 01:16:39;;;;;;;1.60;1.20;;;4.10;99.90;;;;;;5081624;28;20423;-79
2024/03/28 01:19:05;;;;;;;1.40;1.20;;;3.90;99.90;;;;;;5081438;28;20380;-79
2024/03/28 01:21:30;;;;;;;1.20;1.10;;;3.90;99.90;;;;;;5084392;28;20439;-80
2024/03/28 01:23:56;;;;;;;2.00;1.10;;;3.70;99.90;;;;;;5089324;28;20993;-79
2024/03/28 01:26:21;;;;;;;1.40;1.30;;;3.90;99.90;;;;;;5096553;28;20445;-78
2024/03/28 01:28:47;;;;;;;1.40;1.30;;;3.80;99.90;;;;;;5076693;28;20435;-80
2024/03/28 01:31:12;;;;;;;2.10;1.13;;;3.80;99.90;;;;;;5065234;28;20378;-80
2024/03/28 01:33:38;;;;;;;1.10;0.98;;;3.90;99.90;;;;;;5072373;28;20411;-80
2024/03/28 01:36:04;;;;;;;0.90;0.90;;;3.80;99.90;;;;;;5095402;28;20409;-78
2024/03/28 01:38:29;;;;;;;1.33;1.23;;;3.90;99.90;;;;;;5089621;28;20445;-80
2024/03/28 01:40:55;;;;;;;1.40;1.20;;;3.80;99.90;;;;;;5085138;28;20419;-80
2024/03/28 01:43:20;;;;;;;1.70;1.10;;;3.70;99.90;;;;;;5083873;28;20411;-79
2024/03/28 01:45:47;;;;;;;1.20;1.10;;;3.80;99.90;;;;;;5095424;28;20378;-80
2024/03/28 01:48:14;;;;;;;1.88;1.30;;;3.90;99.90;;;;;;5103272;28;20417;-79
2024/03/28 01:50:40;;;;;;;2.97;1.40;;;3.80;99.90;;;;;;5105607;28;20454;-80
2024/03/28 01:53:06;;;;;;;2.63;1.50;;;3.90;99.90;;;;;;5082553;28;20403;-80
2024/03/28 01:55:32;;;;;;;2.90;1.58;;;5.40;99.90;;;;;;5091378;28;20837;-82
2024/03/28 01:58:00;;;;;;;1.90;1.50;;;3.40;99.90;;;;;;5102401;28;20382;-80
2024/03/28 02:00:26;;;;;;;2.47;1.60;;;4.00;99.90;;;;;;5084733;28;20398;-79
2024/03/28 02:02:55;;;;;;;2.60;1.65;;;4.30;99.90;;;;;;5082564;28;20384;-80
2024/03/28 02:05:20;;;;;;;2.30;1.70;;;3.90;99.90;;;;;;5092434;28;20409;-80
2024/03/28 02:07:46;;;;;;;2.70;1.73;;;3.60;99.90;;;;;;5066230;28;20425;-80
2024/03/28 02:10:11;;;;;;;1.90;1.57;;;4.00;99.90;;;;;;5072735;28;20412;-81
2024/03/28 02:12:37;;;;;;;1.60;1.40;;;3.70;99.90;;;;;;5094990;28;20469;-80
2024/03/28 02:15:04;;;;;;;1.50;1.20;;;3.90;99.90;;;;;;5097346;28;20402;-80
2024/03/28 02:17:30;;;;;;;1.60;1.50;;;4.00;99.90;;;;;;5090333;28;20392;-79
2024/03/28 02:19:55;;;;;;;1.40;1.25;;;4.10;99.90;;;;;;5084541;28;20398;-80
2024/03/28 02:22:21;;;;;;;1.20;1.03;;;4.00;99.90;;;;;;5082581;28;20491;-80
2024/03/28 02:24:49;;;;;;;1.53;1.30;;;3.70;99.90;;;;;;5093092;28;20483;-79
2024/03/28 02:27:14;;;;;;;1.88;1.20;;;4.10;99.90;;;;;;5099128;28;20382;-79
2024/03/28 02:29:40;;;;;;;2.40;1.10;;;4.00;99.90;;;;;;5104377;28;20385;-79
2024/03/28 02:32:06;;;;;;;1.20;1.10;;;4.10;99.90;;;;;;5108567;28;20472;-80
2024/03/28 02:34:31;;;;;;;1.90;1.20;;;4.10;99.90;;;;;;5100711;28;20402;-80
2024/03/28 02:36:57;;;;;;;1.80;1.20;;;4.00;99.90;;;;;;5094126;28;20878;-80
2024/03/28 02:39:22;;;;;;;1.10;0.97;;;4.10;99.90;;;;;;5098122;28;20448;-80
2024/03/28 02:41:48;;;;;;;1.20;1.03;;;4.00;99.90;;;;;;5092512;28;20448;-81
2024/03/28 02:44:13;;;;;;;1.80;0.90;;;4.30;99.90;;;;;;5087101;28;20406;-82
2024/03/28 02:46:39;;;;;;;1.00;0.90;;;4.20;99.90;;;;;;5081442;28;20434;-80
2024/03/28 02:49:04;;;;;;;2.00;0.73;;;4.40;99.90;;;;;;5084314;28;20413;-79
2024/03/28 02:51:30;;;;;;;0.80;0.80;;;4.40;99.90;;;;;;5095866;28;20405;-80
2024/03/28 02:53:55;;;;;;;0.90;0.80;;;4.40;99.90;;;;;;5103931;28;20386;-79
2024/03/28 02:56:21;;;;;;;0.90;0.70;;;4.30;99.90;;;;;;5088498;28;20393;-80
2024/03/28 02:58:46;;;;;;;1.27;0.80;;;4.30;99.90;;;;;;5092162;28;20408;-80
2024/03/28 03:01:12;;;;;;;1.00;0.80;;;4.20;99.90;;;;;;5099007;28;21018;-81
2024/03/28 03:03:37;;;;;;;0.82;0.70;;;4.30;99.90;;;;;;5103982;28;20414;-81
2024/03/28 03:06:03;;;;;;;0.77;0.70;;;4.00;99.90;;;;;;5090368;28;20462;-78
2024/03/28 03:08:29;;;;;;;0.80;0.80;;;4.20;99.90;;;;;;5085724;28;21025;-80
2024/03/28 03:10:54;;;;;;;0.70;0.70;;;4.20;99.90;;;;;;5096599;28;20404;-81
2024/03/28 03:13:20;;;;;;;0.90;0.70;;;4.30;99.90;;;;;;5090336;28;20809;-80
2024/03/28 03:15:52;;;;;;;0.80;0.60;;;4.20;99.90;;;;;;5082277;28;20400;-80
2024/03/28 03:18:25;;;;;;;0.65;0.55;;;4.40;99.90;;;;;;5089937;28;20405;-80
2024/03/28 03:21:02;;;;;;;0.90;0.80;;;4.40;99.90;;;;;;5094730;28;20457;-81
2024/03/28 03:23:35;;;;;;;0.90;0.65;;;4.30;99.90;;;;;;5101849;28;20397;-80
2024/03/28 03:26:11;;;;;;;0.90;0.70;;;4.30;99.90;;;;;;5080708;28;20384;-80
2024/03/28 03:36:49;;;;;;;1.50;0.70;;;4.40;99.90;;;;;;5096725;28;20855;-81
2024/03/28 03:39:15;;;;;;;1.20;0.60;;;4.50;99.90;;;;;;5094086;28;20389;-80
2024/03/28 03:41:40;;;;;;;1.08;0.98;;;4.40;99.90;;;;;;5103145;28;20386;-79
2024/03/28 03:44:06;;;;;;;0.80;0.70;;;4.60;99.90;;;;;;5101166;28;20463;-79
2024/03/28 03:46:32;;;;;;;0.90;0.70;;;4.50;99.90;;;;;;5075057;28;20978;-80
2024/03/28 03:48:58;;;;;;;0.80;0.80;;;4.40;99.90;;;;;;5093852;28;20486;-81
2024/03/28 03:51:24;;;;;;;2.00;0.60;;;4.30;99.90;;;;;;5103025;28;20386;-80
2024/03/28 03:53:49;;;;;;;1.20;0.63;;;5.30;99.90;;;;;;5102922;28;20378;-81
2024/03/28 03:56:15;;;;;;;1.50;0.80;;;4.40;99.90;;;;;;5098622;28;20507;-80
2024/03/28 03:58:41;;;;;;;1.20;0.50;;;4.90;99.90;;;;;;5081211;28;20889;-80
2024/03/28 04:01:07;;;;;;;1.40;0.60;;;4.50;99.90;;;;;;5095139;28;20390;-80
2024/03/28 04:03:33;;;;;;;2.10;0.60;;;4.60;99.90;;;;;;5135762;22;20399;-78
2024/03/28 04:06:02;;;;;;;0.83;0.80;;;4.20;99.90;;;;;;5072898;28;20394;-79
2024/03/28 04:08:28;;;;;;;0.68;0.60;;;4.80;99.90;;;;;;5072196;28;20399;-80
2024/03/28 04:10:54;;;;;;;1.10;0.82;;;4.70;99.90;;;;;;5073073;28;20387;-79
2024/03/28 04:13:20;;;;;;;1.88;1.00;;;4.80;99.90;;;;;;5054413;28;20390;-79
2024/03/28 04:15:46;;;;;;;0.70;0.65;;;4.70;99.90;;;;;;5054696;28;20380;-79
2024/03/28 04:18:12;;;;;;;0.80;0.80;;;4.80;99.90;;;;;;5053801;28;20413;-80
2024/03/28 04:20:40;;;;;;;0.70;0.70;;;5.30;99.90;;;;;;5062363;28;20409;-80
2024/03/28 04:23:06;;;;;;;1.02;0.90;;;4.80;99.90;;;;;;5071186;28;20468;-80
2024/03/28 04:25:32;;;;;;;0.77;0.77;;;5.00;99.90;;;;;;5065115;28;20395;-80
2024/03/28 04:27:58;;;;;;;0.70;0.70;;;5.30;99.90;;;;;;5054663;28;20396;-80
2024/03/28 04:30:31;;;;;;;2.70;1.20;;;5.00;99.90;;;;;;5054958;28;20392;-80
2024/03/28 04:32:56;;;;;;;0.80;0.80;;;4.80;99.90;;;;;;5054657;28;20891;-79
2024/03/28 04:35:23;;;;;;;0.60;0.60;;;5.10;99.90;;;;;;5072487;28;20388;-80
2024/03/28 04:37:49;;;;;;;1.30;0.93;;;4.70;99.90;;;;;;5074111;28;20403;-80
2024/03/28 04:40:14;;;;;;;0.70;0.70;;;5.10;99.90;;;;;;5057760;28;20406;-79
2024/03/28 04:42:41;;;;;;;0.70;0.63;;;5.00;99.90;;;;;;5072691;28;20805;-80
2024/03/28 04:45:08;;;;;;;0.60;0.60;;;5.00;99.90;;;;;;5072768;28;20414;-80
2024/03/28 04:47:35;;;;;;;1.52;0.70;;;5.10;99.90;;;;;;5061867;28;20912;-80
2024/03/28 04:50:01;;;;;;;0.90;0.70;;;5.20;99.90;;;;;;5053368;28;20480;-80
2024/03/28 04:52:26;;;;;;;1.30;0.70;;;4.80;99.90;;;;;;5053663;28;20417;-80
2024/03/28 04:54:52;;;;;;;0.80;0.60;;;5.60;99.90;;;;;;5033987;28;20388;-80
2024/03/28 04:57:17;;;;;;;1.50;0.60;;;5.30;99.90;;;;;;5055863;28;20413;-80
2024/03/28 04:59:43;;;;;;;0.63;0.63;;;5.70;99.90;;;;;;5071843;28;20387;-80
2024/03/28 05:02:08;;;;;;;2.00;0.60;;;6.00;99.90;;;;;;5054015;28;20783;-80
2024/03/28 05:04:35;;;;;;;0.80;0.80;;;5.90;99.90;;;;;;5072318;28;20419;-80
2024/03/28 05:07:00;;;;;;;2.00;0.90;;;5.80;99.90;;;;;;5070209;28;20400;-80
2024/03/28 05:09:27;;;;;;;1.10;1.00;;;6.20;99.90;;;;;;5072298;28;20403;-80
2024/03/28 05:11:53;;;;;;;1.43;0.90;;;5.50;99.90;;;;;;5073063;28;20464;-81
2024/03/28 05:14:18;;;;;;;1.20;0.80;;;6.20;99.90;;;;;;5071868;28;20391;-81
2024/03/28 05:16:44;;;;;;;0.80;0.77;;;6.00;99.90;;;;;;5071590;28;20442;-80
2024/03/28 05:19:10;;;;;;;2.13;1.20;;;5.80;99.90;;;;;;5055268;28;20391;-80
2024/03/28 05:21:36;;;;;;;1.63;1.00;;;5.60;99.90;;;;;;5052726;28;20397;-80
2024/03/28 05:24:01;;;;;;;2.00;1.10;;;5.60;99.90;;;;;;5062939;28;20544;-79
2024/03/28 05:26:27;;;;;;;1.93;0.90;;;5.60;99.90;;;;;;5074158;28;20454;-80
2024/03/28 05:28:52;;;;;;;1.30;1.10;;;5.40;99.90;;;;;;5073182;28;20406;-80
2024/03/28 05:31:18;;;;;;;1.20;0.80;;;5.60;99.90;;;;;;5076669;28;20384;-79
2024/03/28 05:33:44;;;;;;;1.35;1.25;;;5.50;99.90;;;;;;5064014;28;20411;-80
2024/03/28 05:36:11;;;;;;;1.10;1.00;;;5.60;99.90;;;;;;5053591;28;20384;-77
2024/03/28 05:38:36;;;;;;;1.50;1.10;;;5.70;99.90;;;;;;5053344;28;20491;-79
2024/03/28 05:41:02;;;;;;;1.23;1.10;;;5.80;99.90;;;;;;5072152;28;20415;-78
2024/03/28 05:43:28;;;;;;;1.08;1.02;;;5.90;99.90;;;;;;5071341;28;20430;-79
2024/03/28 05:45:53;;;;;;;1.63;1.00;;;5.60;99.90;;;;;;5053463;28;20384;-78
2024/03/28 05:48:19;;;;;;;1.53;1.00;;;5.40;99.90;;;;;;5046674;28;20407;-78
2024/03/28 05:50:45;;;;;;;1.85;0.90;;;5.50;99.90;;;;;;5071261;28;20388;-78
2024/03/28 05:53:12;;;;;;;0.90;0.80;;;5.80;99.90;;;;;;5069677;28;20422;-79
2024/03/28 05:55:38;;;;;;;1.80;1.13;;;5.80;99.90;;;;;;5071193;28;20905;-78
2024/03/28 05:58:03;;;;;;;1.33;1.10;;;5.70;99.90;;;;;;5052983;28;20408;-78
2024/03/28 06:00:30;;;;;;;1.10;0.80;;;5.80;99.90;;;;;;5050152;28;20551;-79
2024/03/28 06:02:56;;;;;;;1.57;1.10;;;6.40;99.90;;;;;;5070598;28;20399;-78
2024/03/28 06:05:21;;;;;;;0.90;0.90;;;6.00;99.90;;;;;;5052674;28;20426;-78
2024/03/28 06:07:47;;;;;;;1.60;1.10;;;6.10;99.90;;;;;;5057052;28;20399;-79
2024/03/28 06:10:13;;;;;;;1.63;1.07;;;6.00;99.90;;;;;;5075405;28;20474;-78
2024/03/28 06:12:38;;;;;;;2.60;1.10;;;6.30;99.90;;;;;;5074798;28;20445;-78
2024/03/28 06:15:04;;;;;;;1.05;0.70;;;6.30;99.90;;;;;;5056961;28;20922;-79
2024/03/28 06:17:29;;;;;;;2.65;0.60;;;6.90;99.90;;;;;;5074080;28;20435;-80
2024/03/28 06:19:55;;;;;;;3.20;0.70;;;7.00;99.90;;;;;;5056299;28;20771;-80
2024/03/28 06:22:20;;;;;;;0.80;0.70;;;6.90;99.90;;;;;;5045147;28;20415;-80
2024/03/28 06:24:46;;;;;;;0.70;0.60;;;6.90;99.90;;;;;;5080727;28;20412;-78
2024/03/28 06:27:12;;;;;;;1.60;0.90;;;7.20;99.90;;;;;;5081858;28;20410;-78
2024/03/28 06:29:49;;;;;;;2.57;0.67;;;7.80;99.90;;;;;;5099054;28;20475;-78
2024/03/28 06:32:24;;;;;;;0.50;0.40;;;8.10;99.90;;;;;;5060657;28;20415;-78
2024/03/28 06:34:59;;;;;;;0.40;0.30;;;8.20;99.90;;;;;;5056039;28;20426;-79
2024/03/28 06:37:25;;;;;;;1.20;0.50;;;7.60;99.90;;;;;;5063793;28;20395;-79
2024/03/28 06:39:51;;;;;;;1.30;0.50;;;8.60;99.90;;;;;;5073564;28;20447;-79
2024/03/28 06:42:16;;;;;;;1.00;0.47;;;8.10;99.90;;;;;;5055965;28;20387;-79
2024/03/28 06:44:49;;;;;;;1.70;0.50;;;7.70;99.90;;;;;;5074055;28;20775;-79
2024/03/28 06:47:16;;;;;;;1.80;0.57;;;8.00;99.90;;;;;;5073038;28;20433;-79
2024/03/28 06:49:41;;;;;;;0.60;0.50;;;7.70;99.90;;;;;;5057554;28;20903;-80
2024/03/28 06:52:07;;;;;;;0.93;0.50;;;7.50;99.90;;;;;;5077061;28;20414;-79
2024/03/28 06:54:33;;;;;;;0.70;0.50;;;7.50;99.90;;;;;;5076302;28;20394;-80
2024/03/28 06:56:59;;;;;;;1.60;0.65;;;7.20;99.90;;;;;;5078162;28;20403;-78
2024/03/28 06:59:24;;;;;;;1.15;0.60;;;7.30;99.90;;;;;;5077932;28;20805;-82
2024/03/28 07:01:51;;;;;;;1.10;0.60;;;7.10;99.90;;;;;;5050517;28;20409;-81
2024/03/28 07:04:16;;;;;;;2.33;0.63;;;7.00;99.90;;;;;;5055032;28;20410;-81
2024/03/28 07:06:42;;;;;;;0.60;0.50;;;6.80;99.90;;;;;;5050258;28;21010;-80
2024/03/28 07:09:08;;;;;;;0.70;0.55;;;6.70;99.90;;;;;;5056385;28;20435;-82
2024/03/28 07:11:34;;;;;;;1.05;0.60;;;6.50;99.90;;;;;;5057399;28;20612;-81
2024/03/28 07:14:00;;;;;;;1.10;0.70;;;6.80;99.90;;;;;;5057307;28;20387;-81
2024/03/28 07:16:26;;;;;;;0.90;0.77;;;6.80;99.90;;;;;;5049471;28;20412;-81
2024/03/28 07:18:55;;;;;;;1.20;0.80;;;6.50;99.90;;;;;;5053258;28;20905;-80
2024/03/28 07:21:21;;;;;;;0.80;0.70;;;6.40;99.90;;;;;;5087212;28;20391;-81
2024/03/28 07:23:47;;;;;;;1.33;0.70;;;6.60;99.90;;;;;;5075114;28;20404;-81
2024/03/28 07:26:13;;;;;;;0.60;0.50;;;6.40;99.90;;;;;;5074256;28;20412;-82
2024/03/28 07:28:38;;;;;;;0.70;0.50;;;6.70;99.90;;;;;;5056730;28;20434;-82
2024/03/28 07:31:04;;;;;;;0.70;0.50;;;6.50;99.90;;;;;;5075651;28;20486;-81
2024/03/28 07:33:29;;;;;;;0.50;0.40;;;6.70;99.90;;;;;;5057392;28;20407;-81
2024/03/28 07:35:55;;;;;;;0.60;0.50;;;6.30;99.90;;;;;;5054967;28;20403;-81
2024/03/28 07:38:21;;;;;;;0.70;0.50;;;6.60;99.90;;;;;;5055865;28;20434;-81
2024/03/28 07:40:50;;;;;;;0.70;0.30;;;8.10;99.90;;;;;;5073449;28;20432;-82
2024/03/28 07:43:16;;;;;;;0.50;0.50;;;6.80;99.90;;;;;;5054765;28;20409;-81
2024/03/28 07:45:45;;;;;;;0.50;0.40;;;6.90;99.90;;;;;;5056260;28;20435;-81
2024/03/28 07:48:12;;;;;;;0.50;0.43;;;7.20;99.90;;;;;;5075207;28;20459;-81
2024/03/28 07:50:37;;;;;;;0.53;0.30;;;6.80;99.90;;;;;;5051249;28;20401;-82
2024/03/28 07:53:03;;;;;;;0.50;0.40;;;6.70;99.90;;;;;;5073634;28;20410;-82
2024/03/28 07:55:29;;;;;;;0.50;0.30;;;6.40;99.90;;;;;;5056170;28;20485;-82
2024/03/28 07:57:54;;;;;;;1.10;0.50;;;6.20;99.90;;;;;;5073814;28;20733;-82
2024/03/28 08:00:23;;;;;;;0.70;0.50;;;6.50;99.90;;;;;;5064174;28;20459;-82
2024/03/28 08:02:49;;;;;;;0.50;0.40;;;8.60;99.90;;;;;;5064438;28;20415;-82
2024/03/28 08:05:17;;;;;;;0.70;0.60;;;6.40;99.90;;;;;;5085165;28;20825;-79
2024/03/28 08:07:44;;;;;;;0.60;0.55;;;6.00;99.90;;;;;;5054549;28;20415;-79
2024/03/28 08:10:10;;;;;;;1.10;0.50;;;6.30;99.90;;;;;;5080298;28;20422;-80
2024/03/28 08:12:36;;;;;;;0.80;0.50;;;6.50;99.90;;;;;;5053270;28;20404;-80
2024/03/28 08:15:02;;;;;;;0.50;0.40;;;;;;;;;;5055687;28;20410;-83
2024/03/28 08:17:30;;;;;;;0.60;0.40;;;;;;;;;;5047491;28;20409;-83
2024/03/28 08:19:55;;;;;;;0.95;0.40;;;7.00;99.90;;;;;;5051710;28;20387;-82
2024/03/28 08:22:21;;;;;;;1.80;0.80;;;6.80;99.90;;;;;;5046736;28;20493;-83
2024/03/28 08:24:47;;;;;;;0.97;0.70;;;;;;;;;;5055188;28;20459;-83
2024/03/28 08:27:14;;;;;;;2.05;1.38;;;;;;;;;;5057793;28;20372;-82
2024/03/28 08:29:40;;;;;;;1.60;1.00;;;;;;;;;;5074085;28;20407;-83
2024/03/28 08:32:06;;;;;;;1.33;0.50;;;7.50;99.90;;;;;;5074368;28;20400;-83
2024/03/28 08:34:32;;;;;;;0.90;0.68;;;;;;;;;;5066573;28;21168;-82
2024/03/28 08:36:57;;;;;;;0.90;0.80;;;;;;;;;;5056954;28;20381;-82
2024/03/28 08:39:24;;;;;;;0.60;0.50;;;8.10;99.90;;;;;;5064087;28;20733;-82
2024/03/28 08:41:53;;;;;;;0.70;0.40;;;8.30;99.90;;;;;;5049899;28;20407;-80
2024/03/28 08:44:21;;;;;;;0.63;0.40;;;;;;;;;;5053347;28;20403;-81
2024/03/28 08:46:47;;;;;;;0.70;0.50;;;;;;;;;;5052428;28;20404;-81
2024/03/28 08:49:16;;;;;;;0.90;0.70;;;8.80;99.90;;;;;;5068896;28;20392;-79
2024/03/28 08:51:42;;;;;;;0.40;0.40;;;9.00;99.90;;;;;;5065544;28;20422;-81
2024/03/28 08:54:12;;;;;;;0.60;0.50;;;;;;;;;;5067107;28;20486;-81
2024/03/28 08:56:38;;;;;;;0.60;0.40;;;8.50;99.90;;;;;;5069776;28;20407;-82
2024/03/28 08:59:04;;;;;;;0.60;0.38;;;8.40;99.90;;;;;;5073836;28;20384;-81
2024/03/28 09:01:30;;;;;;;1.90;0.50;;;8.80;99.90;;;;;;5051151;28;20492;-81
2024/03/28 09:03:56;;;;;;;0.70;0.50;;;;;;;;;;5072299;28;20963;-81
2024/03/28 09:06:23;;;;;;;0.70;0.40;;;8.50;99.90;;;;;;5053100;28;20427;-82
2024/03/28 09:08:48;;;;;;;0.90;0.60;;;8.40;99.90;;;;;;5056065;28;20395;-81
2024/03/28 09:11:15;;;;;;;0.70;0.40;;;8.70;99.90;;;;;;5073092;28;20376;-81
2024/03/28 09:13:41;;;;;;;1.00;0.50;;;;;;;;;;5054655;28;20414;-80
2024/03/28 09:16:07;;;;;;;1.02;0.40;;;9.10;99.90;;;;;;5068296;28;20395;-81
2024/03/28 09:18:34;;;;;;;0.90;0.40;;;8.50;99.90;;;;;;5069422;28;20410;-80
2024/03/28 09:21:01;;;;;;;0.60;0.60;;;8.90;99.90;;;;;;5054775;28;20399;-80
2024/03/28 09:23:27;;;;;;;0.60;0.30;;;9.40;99.90;;;;;;5068362;28;20405;-80
2024/03/28 09:25:52;;;;;;;0.80;0.40;;;9.20;99.90;;;;;;5055958;28;20411;-80
2024/03/28 09:28:18;;;;;;;0.40;0.30;;;9.60;99.90;;;;;;5070944;28;20401;-79
2024/03/28 09:30:44;;;;;;;0.88;0.40;;;9.10;99.90;;;;;;5055565;28;20922;-79
2024/03/28 09:33:11;;;;;;;0.90;0.40;;;9.60;99.90;;;;;;5048153;28;20392;-81
2024/03/28 09:35:36;;;;;;;0.98;0.60;;;;;;;;;;5056754;28;20408;-82
2024/03/28 09:38:03;;;;;;;0.60;0.40;;;;;;;;;;5059302;28;20415;-83
2024/03/28 09:40:30;;;;;;;1.23;0.40;;;9.90;99.90;;;;;;5070354;28;20503;-81
2024/03/28 09:42:57;;;;;;;0.80;0.40;;;9.80;99.90;;;;;;5062492;28;20441;-82
2024/03/28 09:45:24;;;;;;;0.60;0.40;;;;;;;;;;5075078;28;20412;-82
2024/03/28 09:47:51;;;;;;;1.10;0.40;;;10.20;99.90;;;;;;5052979;28;20395;-81
2024/03/28 09:50:18;;;;;;;0.60;0.30;;;10.20;99.90;;;;;;5082438;28;20401;-82
2024/03/28 09:52:46;;;;;;;0.50;0.30;;;9.60;99.90;;;;;;5071619;28;20403;-80
2024/03/28 09:55:12;;;;;;;1.05;0.40;;;10.00;99.90;;;;;;5083915;28;20472;-80
2024/03/28 09:57:38;;;;;;;1.50;0.40;;;;;;;;;;5066462;28;20393;-81
2024/03/28 10:00:05;;;;;;;1.40;0.53;;;10.30;99.90;;;;;;5077123;28;20392;-81
2024/03/28 10:02:42;;;;;;;0.80;0.50;;;;;;;;;;5065256;28;20387;-80
2024/03/28 10:05:09;;;;;;;0.60;0.35;;;9.50;99.90;;;;;;5087906;28;20407;-81
2024/03/28 10:07:35;;;;;;;1.08;0.40;;;10.50;99.90;;;;;;5083906;28;20380;-79
2024/03/28 10:10:01;;;;;;;0.60;0.50;;;9.80;99.90;;;;;;5072051;28;20442;-80
2024/03/28 10:12:29;;;;;;;1.20;0.70;;;;;;;;;;5065444;28;20849;-79
2024/03/28 10:14:56;;;;;;;0.57;0.38;;;10.30;99.90;;;;;;5045022;28;20381;-79
2024/03/28 10:17:24;;;;;;;0.70;0.60;;;10.30;99.90;;;;;;5047021;28;20443;-80
2024/03/28 10:20:07;;;;;;;0.90;0.40;;;10.80;99.90;;;;;;5045828;28;20443;-80
2024/03/28 10:22:41;;;;;;;1.10;0.30;;;10.00;99.90;;;;;;5061160;28;20457;-80
2024/03/28 10:25:18;;;;;;;1.40;0.43;;;10.80;99.90;;;;;;5066710;28;20402;-80
2024/03/28 10:27:45;;;;;;;0.60;0.30;;;10.70;99.90;;;;;;5063783;28;20386;-78
2024/03/28 10:30:18;;;;;;;1.10;0.38;;;11.40;99.90;;;;;;5074733;28;20841;-79
2024/03/28 10:32:44;;;;;;;0.80;0.50;;;11.20;99.90;;;;;;5042606;28;20396;-79
2024/03/28 10:35:11;;;;;;;0.93;0.43;;;;;;;;;;5070069;28;20411;-80
2024/03/28 10:37:37;;;;;;;0.90;0.50;;;10.80;99.90;;;;;;5063162;28;20989;-79
2024/03/28 10:40:03;;;;;;;0.50;0.40;;;;;;;;;;5064208;28;20393;-81
2024/03/28 10:42:30;;;;;;;1.30;0.50;;;;;;;;;;5062736;28;20397;-78
2024/03/28 10:44:59;;;;;;;1.50;0.70;;;10.60;99.90;;;;;;5050706;28;20847;-79
2024/03/28 10:47:29;;;;;;;0.50;0.40;;;11.40;99.90;;;;;;5062295;28;20389;-79
2024/03/28 10:50:17;;;;;;;1.60;0.50;;;10.90;99.90;;;;;;5068301;28;20374;-79
2024/03/28 10:52:50;;;;;;;0.50;0.40;;;11.20;99.90;;;;;;5074725;28;20445;-79
2024/03/28 10:55:19;;;;;;;1.45;0.50;;;11.10;99.90;;;;;;5073347;28;20394;-80
2024/03/28 10:57:46;;;;;;;0.97;0.50;;;11.00;99.90;;;;;;5091444;28;20383;-78
2024/03/28 11:00:14;;;;;;;1.30;0.40;;;;;;;;;;5099246;28;20379;-79
2024/03/28 11:02:40;;;;;;;0.60;0.40;;;;;;;;;;5078005;28;20406;-82
2024/03/28 11:05:08;;;;;;;0.50;0.40;;;;;;;;;;5059200;28;20425;-80
2024/03/28 11:07:35;;;;;;;0.50;0.40;;;;;;;;;;5057797;28;20471;-80
2024/03/28 11:10:00;;;;;;;1.20;0.60;;;5.40;99.90;;;;;;5061111;28;20749;-81
2024/03/28 11:12:30;;;;;;;1.75;0.40;;;;;;;;;;5052999;28;20404;-80
2024/03/28 11:14:58;;;;;;;1.75;0.50;;;6.20;99.90;;;;;;5068438;28;20537;-81
2024/03/28 11:17:24;;;;;;;0.80;0.50;;;6.10;99.90;;;;;;5078191;28;20406;-81
2024/03/28 11:20:03;;;;;;;3.60;1.30;;;6.20;99.90;;;;;;5071322;28;20423;-82
2024/03/28 11:22:32;;;;;;;0.85;0.45;;;6.80;99.90;;;;;;5044706;28;20389;-82
2024/03/28 11:24:58;;;;;;;0.82;0.43;;;;;;;;;;5055221;28;20416;-82
2024/03/28 11:27:24;;;;;;;0.55;0.40;;;;;;;;;;5064030;28;20457;-82
2024/03/28 11:30:04;;;;;;;0.90;0.30;;;8.30;99.90;;;;;;5074298;28;20837;-82
2024/03/28 11:32:30;;;;;;;1.05;0.40;;;;;;;;;;5068166;28;20394;-81
2024/03/28 11:35:05;;;;;;;1.50;0.50;;;;;;;;;;5070694;28;20461;-82
2024/03/28 11:37:31;;;;;;;1.92;0.70;;;10.20;99.90;;;;;;5048626;28;20401;-82
2024/03/28 11:39:57;;;;;;;1.40;0.50;;;;;;;;;;5043983;28;20400;-82
2024/03/28 11:42:23;;;;;;;1.20;0.43;;;;;;;;;;5081982;28;20388;-82
2024/03/28 11:44:49;;;;;;;1.30;0.43;;;11.50;99.90;;;;;;5072521;28;20442;-83
2024/03/28 11:47:21;;;;;;;1.40;0.60;;;11.90;99.90;;;;;;5085530;28;20813;-83
2024/03/28 11:49:47;;;;;;;0.77;0.50;;;12.60;99.90;;;;;;5065396;28;20392;-83
2024/03/28 11:52:14;;;;;;;1.00;0.60;;;;;;;;;;5066200;28;20917;-84
2024/03/28 11:54:41;;;;;;;0.60;0.40;;;;;;;;;;5078895;28;20389;-84
2024/03/28 11:57:07;;;;;;;0.88;0.50;;;;;;;;;;5062384;28;20480;-85
2024/03/28 11:59:33;;;;;;;0.95;0.45;;;12.70;99.90;;;;;;5068334;28;20382;-84
2024/03/28 12:02:02;;;;;;;1.10;0.60;;;11.90;99.90;;;;;;5070599;28;20473;-83
2024/03/28 12:04:29;;;;;;;1.10;0.50;;;;;;;;;;5057979;28;20421;-81
2024/03/28 12:06:57;;;;;;;2.20;0.50;;;;;;;;;;5090695;28;20390;-83
2024/03/28 12:09:24;;;;;;;2.20;0.70;;;10.00;99.90;;;;;;5080099;28;20378;-82
2024/03/28 12:11:50;;;;;;;1.60;0.60;;;9.90;99.90;;;;;;5053384;28;20382;-82
2024/03/28 12:14:24;;;;;;;1.00;0.50;;;;;;;;;;5071693;28;20472;-82
2024/03/28 12:16:50;;;;;;;0.60;0.50;;;;;;;;;;5066150;28;20381;-81
2024/03/28 12:19:26;;;;;;;1.30;0.60;;;;;;;;;;5058821;28;20452;-81
2024/03/28 12:21:52;;;;;;;0.40;0.30;;;;;;;;;;5051104;28;20769;-80
2024/03/28 12:24:18;;;;;;;0.60;0.40;;;;;;;;;;5070858;28;20399;-81
2024/03/28 12:26:45;;;;;;;0.60;0.40;;;;;;;;;;5046745;28;20543;-82
2024/03/28 12:29:11;;;;;;;0.80;0.60;;;;;;;;;;5058881;28;20421;-80
2024/03/28 12:31:37;;;;;;;0.80;0.40;;;;;;;;;;5075945;28;20757;-80
2024/03/28 12:34:12;;;;;;;0.40;0.30;;;12.50;99.90;;;;;;5065604;28;20404;-81
2024/03/28 12:36:38;;;;;;;1.00;0.40;;;11.80;99.90;;;;;;5067205;28;20392;-80
2024/03/28 12:39:04;;;;;;;0.60;0.40;;;;;;;;;;5078253;28;20413;-79
2024/03/28 12:41:30;;;;;;;0.70;0.50;;;;;;;;;;5082733;28;20382;-80
2024/03/28 12:43:58;;;;;;;0.50;0.30;;;12.20;99.90;;;;;;5058341;28;20436;-80
2024/03/28 12:46:24;;;;;;;2.20;0.50;;;;;;;;;;5053155;28;20400;-84
2024/03/28 12:48:50;;;;;;;1.50;0.40;;;;;;;;;;5078126;28;20534;-79
2024/03/28 12:51:16;;;;;;;1.00;0.40;;;12.10;99.90;;;;;;5086167;28;20374;-81
2024/03/28 12:53:42;;;;;;;1.20;0.50;;;;;;;;;;5078788;28;20402;-81
2024/03/28 12:56:08;;;;;;;0.80;0.40;;;11.50;99.90;;;;;;5077501;28;20374;-81
2024/03/28 12:58:34;;;;;;;1.10;0.47;;;;;;;;;;5069382;28;20393;-81
2024/03/28 13:01:00;;;;;;;0.90;0.50;;;;;;;;;;5058473;28;20510;-81
2024/03/28 13:03:26;;;;;;;1.90;0.40;;;;;;;;;;5071990;28;20374;-81
2024/03/28 13:05:53;;;;;;;1.70;0.40;;;11.00;99.90;;;;;;5048357;28;20822;-82
2024/03/28 13:08:19;;;;;;;0.63;0.47;;;11.40;99.90;;;;;;5070739;28;20393;-82
2024/03/28 13:10:44;;;;;;;0.80;0.70;;;11.30;99.90;;;;;;5059794;28;20382;-83
2024/03/28 13:13:11;;;;;;;1.20;0.40;;;;;;;;;;5066790;28;20477;-81
2024/03/28 13:15:37;;;;;;;0.52;0.40;;;;;;;;;;5071427;28;20388;-81
2024/03/28 13:18:03;;;;;;;0.90;0.40;;;11.20;99.90;;;;;;5059360;28;20399;-81